Latest Weather Observations for Borroloola

IDD60801

Issued at 3:05 pm CST Friday 19 September 2014 (issued every 30 minutes, with the page automatically refreshed every 10 minutes)

About weather observations | Map of weather stations | Latest weather observations for NT | Other Formats
Station Details ID: 014723 Name: BORROLOOLA AIRPORT Lat: -16.08 Lon: 136.30 Height: 16.1 m
Data from the previous 72 hours. | See also: Recent months at Borroloola
Date/Time
CST
Temp
°C
App
Temp
°C
Dew
Point
Rel
Hum
%
Delta-T
°C
Wind Press
QNH
hPa
Press
MSL
hPa
Rain
since 9 am
mm
Dir
 
Spd
km/h
Gust
km/h
Spd
kts
Gust
kts
19/03:00pm 35.4 29.1 1.7 12 17.2 N 24 41 13 22 1012.0 1011.9 0.0
19/02:30pm 34.4 28.4 0.9 12 16.7 NE 22 35 12 19 1012.5 1012.4 0.0
19/02:00pm 35.9 30.0 -0.5 10 17.9 NE 20 35 11 19 1013.1 1013.0 0.0
19/01:30pm 35.6 29.1 0.6 11 17.5 NE 24 41 13 22 1013.6 1013.5 0.0
19/01:00pm 34.7 28.1 -0.1 11 17.1 NNE 24 37 13 20 1014.1 1014.0 0.0
19/12:30pm 35.5 30.0 3.9 14 16.7 ENE 22 28 12 15 1014.7 1014.6 0.0
19/12:00pm 35.3 30.1 3.8 14 16.6 E 20 28 11 15 1015.1 1015.0 0.0
19/11:30am 34.1 28.9 3.8 15 15.8 E 20 33 11 18 1015.7 1015.6 0.0
19/11:00am 33.8 29.2 5.4 17 15.2 E 19 28 10 15 1016.2 1016.1 0.0
19/10:30am 32.2 27.9 7.1 21 13.7 ESE 19 28 10 15 1016.8 1016.7 0.0
19/10:00am 31.3 28.7 10.6 28 11.9 ESE 15 22 8 12 1017.0 1016.9 0.0
19/09:30am 29.2 29.5 15.0 42 8.6 SSE 7 13 4 7 1017.2 1017.1 0.0
19/09:00am 26.6 26.1 15.9 51 6.5 S 13 15 7 8 1017.3 1017.2 0.0
19/08:30am 24.6 25.2 16.8 62 4.8 S 9 13 5 7 1017.1 1017.0 0.0
19/08:00am 22.5 23.5 16.8 70 3.5 SSW 7 9 4 5 1017.0 1016.9 0.0
19/07:30am 19.6 21.0 15.3 76 2.5 ENE 2 6 1 3 1016.8 1016.7 0.0
19/07:00am 16.2 17.2 13.3 83 1.6 CALM 0 0 0 0 1016.3 1016.2 0.0
19/06:30am 15.0 15.4 11.2 78 2.0 CALM 0 0 0 0 1016.0 1015.9 0.0
19/06:00am 14.9 15.4 11.7 81 1.7 CALM 0 0 0 0 1015.6 1015.5 0.0
19/05:30am 15.2 15.9 12.3 83 1.6 CALM 0 0 0 0 1015.3 1015.2 0.0
19/05:00am 15.5 16.3 12.4 82 1.7 CALM 0 0 0 0 1015.0 1014.9 0.0
19/04:30am 15.5 16.3 12.4 82 1.7 CALM 0 0 0 0 1014.7 1014.6 0.0
19/04:00am 16.0 16.6 12.0 77 2.2 CALM 0 0 0 0 1014.6 1014.5 0.0
19/03:30am 16.3 17.0 12.1 76 2.3 CALM 0 0 0 0 1014.6 1014.5 0.0
19/03:00am 16.4 16.3 12.0 75 2.4 NE 4 6 2 3 1014.6 1014.5 0.0
19/02:30am 16.8 17.6 12.7 77 2.3 CALM 0 0 0 0 1014.8 1014.7 0.0
19/02:00am 16.8 17.6 12.5 76 2.4 CALM 0 0 0 0 1014.9 1014.8 0.0
19/01:30am 17.1 17.5 11.2 68 3.2 CALM 0 0 0 0 1015.2 1015.1 0.0
19/01:00am 17.8 18.4 12.0 69 3.2 CALM 0 0 0 0 1015.4 1015.3 0.0
19/12:30am 18.4 19.4 13.3 72 2.9 CALM 0 0 0 0 1015.7 1015.6 0.0
19/12:00am 18.9 20.2 14.0 73 2.8 NE 0 0 0 0 1016.1 1016.0 0.0
 
Date/Time
CST
Temp
°C
App
Temp
°C
Dew
Point
Rel
Hum
%
Delta-T
°C
Wind Press
QNH
hPa
Press
MSL
hPa
Rain
since 9 am
mm
Dir
 
Spd
km/h
Gust
km/h
Spd
kts
Gust
kts
18/11:30pm 19.3 21.3 16.0 81 2.0 CALM 0 0 0 0 1016.3 1016.2 0.0
18/11:00pm 21.1 22.2 16.7 76 2.7 NE 6 7 3 4 1016.5 1016.4 0.0
18/10:30pm 22.0 23.5 17.6 76 2.7 NNE 6 6 3 3 1016.6 1016.5 0.0
18/10:00pm 22.5 23.8 17.2 72 3.3 NNE 6 7 3 4 1016.5 1016.4 0.0
18/09:30pm 23.0 24.7 16.3 66 4.1 NE 2 7 1 4 1016.4 1016.3 0.0
18/09:00pm 23.6 24.1 15.6 61 4.8 NNE 7 9 4 5 1016.2 1016.1 0.0
18/08:30pm 24.2 24.7 14.0 53 6.0 NE 4 7 2 4 1015.8 1015.7 0.0
18/08:00pm 25.2 24.9 13.4 48 6.9 NE 7 9 4 5 1015.4 1015.3 0.0
18/07:30pm 25.8 25.2 13.6 47 7.2 NNE 9 11 5 6 1015.0 1014.9 0.0
18/07:00pm 26.9 25.7 10.2 35 9.3 NNE 7 9 4 5 1014.6 1014.5 0.0
18/06:30pm 28.7 24.7 6.7 25 11.7 NE 17 24 9 13 1014.2 1014.1 0.0
18/06:00pm 29.5 25.3 7.4 25 11.9 NE 19 28 10 15 1013.7 1013.6 0.0
18/05:30pm 30.7 25.1 5.2 20 13.4 NE 24 33 13 18 1013.4 1013.3 0.0
18/05:00pm 31.8 25.9 3.8 17 14.4 NNE 24 35 13 19 1013.1 1013.0 0.0
18/04:30pm 32.8 25.8 1.8 14 15.6 ENE 28 41 15 22 1012.9 1012.8 0.0
18/04:00pm 33.4 27.2 2.3 14 15.8 NE 24 33 13 18 1013.0 1012.9 0.0
18/03:30pm 34.1 27.6 2.8 14 16.1 NE 26 35 14 19 1013.0 1012.9 0.0
18/03:00pm 34.0 27.3 1.7 13 16.3 NE 26 35 14 19 1013.2 1013.1 0.0
18/02:30pm 34.4 28.0 0.9 12 16.7 NNE 24 35 13 19 1013.3 1013.2 0.0
18/02:00pm 35.7 30.0 -0.6 10 17.8 NE 19 32 10 17 1013.6 1013.5 0.0
18/01:48pm 35.7 28.3 -0.6 10 17.8 N 28 46 15 25 1013.6 1013.5 0.0
18/01:30pm 35.1 29.7 -1.1 10 17.6 ENE 17 24 9 13 1014.1 1014.0 0.0
18/01:00pm 35.1 30.3 0.2 11 17.3 NE 15 22 8 12 1014.7 1014.6 0.0
18/12:30pm 34.3 29.2 3.0 14 16.1 E 19 28 10 15 1015.2 1015.1 0.0
18/12:00pm 34.1 28.7 4.7 16 15.6 ENE 22 32 12 17 1015.8 1015.7 0.0
18/11:30am 33.5 28.0 5.9 18 14.8 ESE 24 33 13 18 1016.6 1016.5 0.0
18/11:00am 32.5 27.4 5.9 19 14.2 E 22 35 12 19 1017.0 1016.9 0.0
18/10:30am 32.3 26.6 8.5 23 13.3 ESE 28 43 15 23 1017.4 1017.3 0.0
18/10:00am 32.1 27.6 10.2 26 12.5 ESE 24 33 13 18 1017.5 1017.4 0.0
18/09:30am 29.7 27.3 14.3 39 9.3 SE 20 28 11 15 1017.7 1017.6 0.0
18/09:00am 28.0 27.9 16.9 51 6.9 S 13 20 7 11 1017.5 1017.4 -
18/08:30am 26.0 26.4 18.2 62 4.9 S 13 17 7 9 1017.5 1017.4 -
18/08:00am 24.3 24.3 18.2 68 3.8 S 15 19 8 10 1017.2 1017.1 -
18/07:30am 22.1 23.8 19.3 84 1.8 SSW 9 13 5 7 1017.1 1017.0 -
18/07:00am 19.4 21.0 17.9 91 0.9 SW 6 7 3 4 1016.7 1016.6 -
18/06:30am 18.5 19.8 17.0 91 0.9 SW 6 7 3 4 1016.3 1016.2 -
18/06:00am 18.6 19.4 16.4 87 1.3 SW 7 7 4 4 1016.1 1016.0 -
18/05:30am 19.2 20.5 17.5 90 1.0 SW 7 7 4 4 1015.7 1015.6 -
18/05:00am 19.9 21.6 18.6 92 0.8 SSW 7 9 4 5 1015.4 1015.3 -
18/04:30am 19.7 21.0 17.5 87 1.3 S 7 9 4 5 1015.3 1015.2 -
18/04:00am 21.1 23.5 18.7 86 1.5 SW 4 13 2 7 1015.0 1014.9 -
18/03:30am 20.7 22.4 17.1 80 2.2 NNE 4 19 2 10 1015.7 1015.6 -
18/03:00am 19.5 22.1 17.5 88 1.2 CALM 0 0 0 0 1014.8 1014.7 0.0
18/02:30am 17.5 17.8 14.6 83 1.7 NNE 6 7 3 4 1014.9 1014.8 -
18/02:00am 18.7 21.0 16.7 88 1.2 CALM 0 0 0 0 1015.0 1014.9 -
18/01:30am 19.0 21.2 16.6 86 1.4 CALM 0 0 0 0 1015.2 1015.1 -
18/01:00am 18.6 20.3 15.3 81 1.9 CALM 0 0 0 0 1015.6 1015.5 -
18/12:30am 20.0 22.0 16.0 78 2.4 CALM 0 0 0 0 1015.7 1015.6 -
18/12:00am 20.7 23.7 18.5 87 1.4 CALM 0 0 0 0 1015.9 1015.8 -
 
Date/Time
CST
Temp
°C
App
Temp
°C
Dew
Point
Rel
Hum
%
Delta-T
°C
Wind Press
QNH
hPa
Press
MSL
hPa
Rain
since 9 am
mm
Dir
 
Spd
km/h
Gust
km/h
Spd
kts
Gust
kts
17/11:30pm 21.2 24.0 18.0 82 2.0 CALM 0 2 0 1 1016.0 1015.9 -
17/11:00pm 21.6 24.0 17.0 75 2.8 CALM 0 0 0 0 1016.2 1016.1 -
17/10:30pm 22.7 24.8 19.3 81 2.2 NNE 7 9 4 5 1016.1 1016.0 -
17/10:00pm 23.1 25.4 19.5 80 2.3 NNE 6 7 3 4 1016.1 1016.0 -
17/09:30pm 23.7 26.8 19.4 77 2.7 NNE 2 7 1 4 1016.1 1016.0 -
17/09:00pm 23.9 25.9 19.2 75 3.0 NNE 7 11 4 6 1015.6 1015.5 0.0
17/08:30pm 24.3 25.7 18.7 71 3.5 NNE 9 13 5 7 1015.3 1015.2 -
17/08:00pm 25.0 26.3 18.4 66 4.2 N 9 13 5 7 1014.8 1014.7 -
17/07:30pm 25.9 25.8 17.8 61 5.1 NNE 15 19 8 10 1014.3 1014.2 -
17/07:00pm 26.5 25.5 16.7 55 6.1 N 17 26 9 14 1013.7 1013.6 -
17/06:30pm 27.4 26.4 15.7 48 7.2 N 15 22 8 12 1013.1 1013.0 -
17/06:00pm 28.7 26.7 14.9 43 8.4 N 19 26 10 14 1012.7 1012.6 -
17/05:30pm 30.0 28.2 14.5 38 9.4 NNE 17 32 9 17 1012.2 1012.1 -
17/05:00pm 31.3 28.6 13.6 34 10.7 N 20 26 11 14 1012.0 1011.9 -
17/04:30pm 32.4 28.6 9.9 25 12.9 NE 20 32 11 17 1011.8 1011.7 -
17/04:00pm 33.3 28.8 8.7 22 13.8 NE 22 35 12 19 1011.6 1011.5 -
17/03:30pm 33.5 28.5 8.2 21 14.1 NNE 24 33 13 18 1011.7 1011.6 -
17/03:00pm 32.8 28.1 10.8 26 12.8 NE 26 35 14 19 1011.9 1011.8 -
17/02:30pm 34.0 28.5 9.3 22 14.1 NE 28 41 15 22 1012.0 1011.9 -
17/02:00pm 36.3 30.7 -0.2 10 18.1 ESE 19 30 10 16 1012.0 1011.9 -
17/01:30pm 35.7 29.1 -0.6 10 17.8 E 24 32 13 17 1012.7 1012.6 -
17/01:00pm 36.7 29.8 0.1 10 18.3 ESE 26 37 14 20 1013.2 1013.1 -
17/12:30pm 35.2 27.2 0.3 11 17.3 E 32 46 17 25 1013.7 1013.6 -
17/12:24pm 35.7 27.0 -0.6 10 17.8 E 35 46 19 25 1013.7 1013.6 -
17/12:00pm 35.3 30.3 1.6 12 17.1 ESE 17 28 9 15 1014.2 1014.1 -
17/11:30am 34.5 30.5 5.0 16 15.7 ESE 15 24 8 13 1014.6 1014.5 -
17/11:00am 33.4 29.8 6.6 19 14.6 E 15 28 8 15 1015.3 1015.2 -
17/10:30am 32.4 29.6 8.6 23 13.3 E 13 19 7 10 1015.6 1015.5 -
17/10:00am 31.1 29.7 11.0 29 11.6 S 9 17 5 9 1016.0 1015.9 -
17/09:30am 29.3 29.6 16.1 44 8.2 SSW 9 13 5 7 1016.2 1016.1 -
17/08:30am 25.5 26.6 18.9 67 4.2 S 11 15 6 8 1016.0 1015.9 -
17/08:00am 23.2 25.1 19.8 81 2.2 S 9 11 5 6 1016.0 1015.9 -
17/07:30am 20.3 23.4 19.6 96 0.4 S 2 7 1 4 1015.6 1015.5 -
17/07:00am 18.3 19.8 17.7 96 0.4 NE 6 6 3 3 1015.2 1015.1 -
17/06:30am 16.6 16.9 15.1 91 0.9 NE 7 9 4 5 1014.7 1014.6 -
17/06:00am 17.6 19.6 16.1 91 0.9 CALM 0 0 0 0 1014.2 1014.1 -
17/05:30am 18.4 20.6 16.6 89 1.1 CALM 0 0 0 0 1013.8 1013.7 -
17/05:00am 18.5 20.4 15.7 84 1.7 CALM 0 0 0 0 1013.5 1013.4 -
17/04:30am 18.4 20.6 16.6 89 1.1 CALM 0 0 0 0 1013.2 1013.1 -
17/04:00am 18.3 20.1 15.6 84 1.6 CALM 0 0 0 0 1013.0 1012.9 -
17/03:30am 18.5 20.3 15.4 82 1.8 CALM 0 0 0 0 1013.1 1013.0 -
17/03:00am 19.0 21.2 16.4 85 1.6 CALM 0 0 0 0 1013.2 1013.1 0.0
17/02:30am 19.1 21.1 16.1 83 1.8 CALM 0 0 0 0 1013.3 1013.2 -
17/02:00am 19.6 21.9 16.8 84 1.7 CALM 0 0 0 0 1013.6 1013.5 -
17/01:30am 20.0 22.0 17.0 83 1.8 NE 2 6 1 3 1013.9 1013.8 -
17/01:00am 19.8 20.8 16.8 83 1.8 NE 7 9 4 5 1014.0 1013.9 -
17/12:30am 20.6 23.3 17.8 84 1.7 CALM 0 0 0 0 1014.3 1014.2 -
17/12:00am 21.0 24.3 19.1 89 1.2 CALM 0 0 0 0 1014.4 1014.3 -
 
Date/Time
CST
Temp
°C
App
Temp
°C
Dew
Point
Rel
Hum
%
Delta-T
°C
Wind Press
QNH
hPa
Press
MSL
hPa
Rain
since 9 am
mm
Dir
 
Spd
km/h
Gust
km/h
Spd
kts
Gust
kts
16/11:30pm 21.2 24.0 18.0 82 2.0 CALM 0 0 0 0 1014.4 1014.3 -
16/11:00pm 22.2 25.4 18.8 81 2.1 CALM 0 0 0 0 1014.3 1014.2 -
16/10:30pm 22.9 26.7 20.2 85 1.7 CALM 0 0 0 0 1014.3 1014.2 -
16/10:00pm 23.3 27.1 20.2 83 2.0 CALM 0 0 0 0 1014.2 1014.1 -
16/09:30pm 23.5 26.2 20.2 82 2.1 NNE 6 9 3 5 1014.2 1014.1 -
16/09:00pm 23.8 26.1 19.9 79 2.5 NNE 7 9 4 5 1014.0 1013.9 0.0
16/08:30pm 24.2 26.2 19.9 77 2.8 N 9 11 5 6 1013.6 1013.5 -
16/08:00pm 24.7 26.7 20.0 75 3.0 NNE 9 15 5 8 1013.4 1013.3 -
16/07:30pm 25.4 26.8 19.5 70 3.8 NNE 11 17 6 9 1013.0 1012.9 -
16/07:00pm 26.0 26.4 18.9 65 4.5 NNE 15 20 8 11 1012.6 1012.5 -
16/06:30pm 26.6 26.4 17.7 58 5.6 NNE 15 22 8 12 1012.2 1012.1 -
16/06:00pm 27.4 26.1 18.1 57 5.9 N 22 30 12 16 1011.8 1011.7 -
16/05:30pm 28.5 27.3 18.3 54 6.5 N 22 32 12 17 1011.7 1011.6 -
16/05:00pm 30.3 29.1 17.0 44 8.4 NNE 19 26 10 14 1011.5 1011.4 -
16/04:30pm 31.4 29.4 15.0 37 10.1 NE 19 28 10 15 1011.4 1011.3 -
16/04:00pm 31.5 27.9 14.2 35 10.5 ENE 26 33 14 18 1011.3 1011.2 -
16/03:30pm 31.9 28.3 13.2 32 11.2 NE 24 35 13 19 1011.3 1011.2 -

Other Formats:

Comma delimited format used in spreadsheet applications
http://www.bom.gov.au/fwo/IDD60801/IDD60801.94152.axf

JavaScript Object Notation format (JSON) in row-major order
http://www.bom.gov.au/fwo/IDD60801/IDD60801.94152.json